createdAt,value
2022-12-25T00:04:42.026Z,3.75
2022-12-25T00:09:44.139Z,4.63
2022-12-25T00:14:46.428Z,2.70
2022-12-25T00:19:48.578Z,6.78
2022-12-25T00:24:50.752Z,5.10
2022-12-25T00:29:52.891Z,6.40
2022-12-25T00:34:55.620Z,6.32
2022-12-25T00:39:57.783Z,4.70
2022-12-25T00:45:01.567Z,7.63
2022-12-25T00:50:04.238Z,4.43
2022-12-25T00:55:06.848Z,5.25
2022-12-25T01:00:09.808Z,5.93
2022-12-25T01:05:12.027Z,3.70
2022-12-25T01:10:23.084Z,4.40
2022-12-25T01:15:25.384Z,3.03
2022-12-25T01:20:28.689Z,8.55
2022-12-25T01:25:30.770Z,6.57
2022-12-25T01:30:33.182Z,5.85
2022-12-25T01:35:38.901Z,6.60
2022-12-25T01:40:41.144Z,6.93
2022-12-25T01:45:44.828Z,9.23
2022-12-25T01:50:53.935Z,6.70
2022-12-25T01:56:03.394Z,2.90
2022-12-25T02:01:05.600Z,4.47
2022-12-25T02:06:08.300Z,2.03
2022-12-25T02:11:33.024Z,4.80
2022-12-25T02:16:57.371Z,3.35
2022-12-25T02:22:38.595Z,5.82
2022-12-25T02:28:06.866Z,5.97
2022-12-25T02:33:55.189Z,5.88
2022-12-25T02:39:19.338Z,5.88
2022-12-25T02:44:41.846Z,5.07
2022-12-25T02:50:04.100Z,2.67
2022-12-25T02:55:40.700Z,5.55
2022-12-25T03:01:08.264Z,3.92
2022-12-25T03:06:29.931Z,2.10
2022-12-25T03:11:33.196Z,5.03
2022-12-25T03:16:50.615Z,2.35
2022-12-25T03:22:13.718Z,6.43
2022-12-25T03:27:16.352Z,4.65
2022-12-25T03:32:40.353Z,4.10
2022-12-25T03:38:24.277Z,5.72
2022-12-25T03:44:01.904Z,2.00
2022-12-25T03:49:40.266Z,3.28
2022-12-25T03:55:04.326Z,1.55
2022-12-25T04:00:26.083Z,4.30
2022-12-25T04:05:46.684Z,3.17
2022-12-25T04:11:07.518Z,1.50
2022-12-25T04:16:28.446Z,1.50
2022-12-25T04:21:49.147Z,2.92
2022-12-25T04:27:09.954Z,1.50
2022-12-25T04:32:30.622Z,3.65
2022-12-25T04:37:32.751Z,1.25
2022-12-25T04:42:34.908Z,2.05
2022-12-25T04:47:37.149Z,2.00
2022-12-25T04:52:41.040Z,6.13
2022-12-25T04:57:43.151Z,1.67
2022-12-25T05:02:45.477Z,3.75
2022-12-25T05:07:47.670Z,1.75
2022-12-25T05:12:49.840Z,2.00
2022-12-25T05:17:52.135Z,1.88
2022-12-25T05:22:54.221Z,0.85
2022-12-25T05:27:56.329Z,1.33
2022-12-25T05:32:58.403Z,1.65
2022-12-25T05:38:00.495Z,1.52
2022-12-25T05:43:02.657Z,0.63
2022-12-25T05:48:04.905Z,1.77
2022-12-25T05:53:12.242Z,1.10
2022-12-25T05:58:14.488Z,1.45
2022-12-25T06:03:16.811Z,1.05
2022-12-25T06:08:19.313Z,1.58
2022-12-25T06:13:21.437Z,1.05
2022-12-25T06:18:23.606Z,1.63
2022-12-25T06:23:25.766Z,1.75
2022-12-25T06:28:27.885Z,2.15
2022-12-25T06:33:30.459Z,1.02
2022-12-25T06:38:32.586Z,1.27
2022-12-25T06:43:34.927Z,4.00
2022-12-25T06:48:38.564Z,0.75
2022-12-25T06:53:41.014Z,2.95
2022-12-25T06:58:48.563Z,1.80
2022-12-25T07:03:54.683Z,1.15
2022-12-25T07:08:56.944Z,0.50
2022-12-25T07:13:59.073Z,1.48
2022-12-25T07:19:01.427Z,0.98
2022-12-25T07:24:03.863Z,1.38
2022-12-25T07:29:06.018Z,1.73
2022-12-25T07:34:08.419Z,2.08
2022-12-25T07:39:11.571Z,1.75
2022-12-25T07:44:13.738Z,0.88
2022-12-25T07:49:15.949Z,1.98
2022-12-25T07:54:18.271Z,0.98
2022-12-25T07:59:20.903Z,0.60
2022-12-25T08:04:23.122Z,3.33
2022-12-25T08:09:25.288Z,0.70
2022-12-25T08:14:27.585Z,1.67
2022-12-25T08:19:30.100Z,1.73
2022-12-25T08:24:32.202Z,3.35
2022-12-25T08:29:34.378Z,1.58
2022-12-25T08:34:38.926Z,1.02
2022-12-25T08:39:41.016Z,1.13
2022-12-25T08:44:43.169Z,0.70
2022-12-25T08:49:45.481Z,0.77
2022-12-25T08:54:48.067Z,0.63
2022-12-25T08:59:50.235Z,0.90
2022-12-25T09:04:52.386Z,1.80
2022-12-25T09:09:54.497Z,1.20
2022-12-25T09:14:56.679Z,1.35
2022-12-25T09:19:58.901Z,1.15
2022-12-25T09:25:01.032Z,2.42
2022-12-25T09:30:03.769Z,1.38
2022-12-25T09:35:07.770Z,2.10
2022-12-25T09:40:18.669Z,1.92
2022-12-25T09:45:32.949Z,6.40
2022-12-25T09:50:47.671Z,6.55
2022-12-25T09:56:25.521Z,4.93
2022-12-25T10:01:54.485Z,3.97
2022-12-25T10:07:31.803Z,3.03
2022-12-25T10:12:49.402Z,1.80
2022-12-25T10:18:16.007Z,2.03
2022-12-25T10:23:41.662Z,2.17
2022-12-25T10:28:53.853Z,2.10
2022-12-25T10:33:56.336Z,3.17
2022-12-25T10:38:58.532Z,3.47
2022-12-25T10:44:01.100Z,4.03
2022-12-25T10:49:03.786Z,2.75
2022-12-25T10:54:31.416Z,1.17
2022-12-25T10:59:43.758Z,2.13
2022-12-25T11:04:46.195Z,0.75
2022-12-25T11:10:02.623Z,1.40
2022-12-25T11:15:29.839Z,3.13
2022-12-25T11:20:33.324Z,5.30
2022-12-25T11:25:35.530Z,1.48
2022-12-25T11:30:39.117Z,1.33
2022-12-25T11:35:47.828Z,2.08
2022-12-25T11:40:53.891Z,1.90
2022-12-25T11:46:16.853Z,1.25
2022-12-25T11:51:20.881Z,2.80
2022-12-25T11:56:25.936Z,1.70
2022-12-25T12:01:37.099Z,1.83
2022-12-25T12:06:54.030Z,2.13
2022-12-25T12:12:17.389Z,2.15
2022-12-25T12:17:20.353Z,1.05
2022-12-25T12:22:27.564Z,0.75
2022-12-25T12:27:41.044Z,0.90
2022-12-25T12:32:51.813Z,0.75
2022-12-25T12:37:57.515Z,3.03
2022-12-25T12:43:00.772Z,1.17
2022-12-25T12:48:14.856Z,5.95
2022-12-25T12:53:23.533Z,6.40
2022-12-25T12:58:35.004Z,4.15
2022-12-25T13:03:52.103Z,3.95
2022-12-25T13:09:31.725Z,2.60
2022-12-25T13:14:34.685Z,15.48
2022-12-25T13:19:37.883Z,1.98
2022-12-25T13:24:39.969Z,1.98
2022-12-25T13:29:42.008Z,4.00
2022-12-25T13:34:44.156Z,1.88
2022-12-25T13:39:59.574Z,4.03
2022-12-25T13:45:23.636Z,1.47
2022-12-25T13:50:27.266Z,1.52
2022-12-25T13:55:30.588Z,1.85
2022-12-25T14:00:35.961Z,3.38
2022-12-25T14:05:42.817Z,2.50
2022-12-25T14:10:50.030Z,0.70
2022-12-25T14:15:53.646Z,2.47
2022-12-25T14:20:58.806Z,1.50
2022-12-25T14:26:01.026Z,1.37
2022-12-25T14:31:04.953Z,2.13
2022-12-25T14:36:07.933Z,1.88
2022-12-25T14:41:34.289Z,2.47
2022-12-25T14:51:39.311Z,3.72
2022-12-25T14:56:47.579Z,4.50
2022-12-25T15:01:59.346Z,2.63
2022-12-25T15:07:11.426Z,1.42
2022-12-25T15:12:13.534Z,1.42
2022-12-25T15:17:27.606Z,1.52
2022-12-25T15:22:47.646Z,4.30
2022-12-25T15:27:51.876Z,1.45
2022-12-25T15:32:54.036Z,1.70
2022-12-25T15:37:56.202Z,3.08
2022-12-25T15:42:58.308Z,3.47
2022-12-25T15:48:00.451Z,2.28
2022-12-25T15:53:02.686Z,3.17
2022-12-25T15:58:04.859Z,2.38
2022-12-25T16:03:07.118Z,3.38
2022-12-25T16:08:09.568Z,2.42
2022-12-25T16:13:11.732Z,2.83
2022-12-25T16:18:13.964Z,2.75
2022-12-25T16:23:16.208Z,6.07
2022-12-25T16:28:18.314Z,4.97
2022-12-25T16:33:20.423Z,4.88
2022-12-25T16:38:22.904Z,4.95
2022-12-25T16:43:25.787Z,2.90
2022-12-25T16:48:27.888Z,3.42
2022-12-25T16:53:30.313Z,3.47
2022-12-25T16:58:32.435Z,4.82
2022-12-25T17:03:35.004Z,3.70
2022-12-25T17:08:37.161Z,7.25
2022-12-25T17:13:39.697Z,9.95
2022-12-25T17:18:42.634Z,6.05
2022-12-25T17:23:45.218Z,6.65
2022-12-25T17:28:47.319Z,7.40
2022-12-25T17:33:49.424Z,7.45
2022-12-25T17:38:51.677Z,4.07
2022-12-25T17:43:53.762Z,3.60
2022-12-25T17:48:57.384Z,5.80
2022-12-25T17:54:04.579Z,16.10
2022-12-25T17:59:08.418Z,17.90
2022-12-25T18:04:10.678Z,15.82
2022-12-25T18:09:13.620Z,14.20
2022-12-25T18:14:16.642Z,7.63
2022-12-25T18:19:19.847Z,4.97
2022-12-25T18:24:21.956Z,5.07
2022-12-25T18:29:24.069Z,4.05
2022-12-25T18:34:26.213Z,1.88
2022-12-25T18:39:28.970Z,4.45
2022-12-25T18:44:31.027Z,5.82
2022-12-25T18:49:34.779Z,4.65
2022-12-25T18:54:37.101Z,3.13
2022-12-25T18:59:39.589Z,4.03
2022-12-25T19:04:45.203Z,5.18
2022-12-25T19:09:47.340Z,5.18
2022-12-25T19:14:49.947Z,3.42
2022-12-25T19:19:52.015Z,3.15
2022-12-25T19:24:54.120Z,4.88
2022-12-25T19:29:56.276Z,4.35
2022-12-25T19:34:58.529Z,3.67
2022-12-25T19:40:00.699Z,2.42
2022-12-25T19:45:03.365Z,4.13
2022-12-25T19:50:06.134Z,4.60
2022-12-25T19:55:08.875Z,3.20
2022-12-25T20:00:11.416Z,6.15
2022-12-25T20:05:15.691Z,3.05
2022-12-25T20:10:17.768Z,7.05
2022-12-25T20:15:20.213Z,6.43
2022-12-25T20:20:22.326Z,3.15
2022-12-25T20:25:24.388Z,6.43
2022-12-25T20:30:26.522Z,4.70
2022-12-25T20:35:28.671Z,3.97
2022-12-25T20:40:32.453Z,6.20
2022-12-25T20:45:43.781Z,10.35
2022-12-25T20:50:45.982Z,3.50
2022-12-25T20:55:49.720Z,3.40
2022-12-25T21:00:51.859Z,4.63
2022-12-25T21:05:55.370Z,5.07
2022-12-25T21:11:00.927Z,4.88
2022-12-25T21:16:09.107Z,4.65
2022-12-25T21:21:12.032Z,6.20
2022-12-25T21:26:23.133Z,8.02
2022-12-25T21:31:25.642Z,6.60
2022-12-25T21:36:29.200Z,5.88
2022-12-25T21:41:32.183Z,7.05
2022-12-25T21:46:34.491Z,9.13
2022-12-25T21:51:55.374Z,5.03
2022-12-25T21:56:57.411Z,10.27
2022-12-25T22:01:59.724Z,9.10
2022-12-25T22:07:17.221Z,9.88
2022-12-25T22:12:39.632Z,4.43
2022-12-25T22:18:01.544Z,6.40
2022-12-25T22:23:04.374Z,10.48
2022-12-25T22:28:08.641Z,4.55
2022-12-25T22:33:10.987Z,11.05
2022-12-25T22:38:13.016Z,15.50
2022-12-25T22:43:15.078Z,10.65
2022-12-25T22:48:17.115Z,15.52
2022-12-25T22:53:19.509Z,13.15
2022-12-25T22:58:21.602Z,13.05
2022-12-25T23:03:23.827Z,5.90
2022-12-25T23:08:25.999Z,4.90
2022-12-25T23:13:46.781Z,5.80
2022-12-25T23:19:07.634Z,13.45
2022-12-25T23:24:28.403Z,9.82
2022-12-25T23:29:36.361Z,7.43
2022-12-25T23:34:40.971Z,8.98
2022-12-25T23:39:43.391Z,7.75
2022-12-25T23:44:45.792Z,9.48
2022-12-25T23:49:47.930Z,7.30
2022-12-25T23:54:50.062Z,9.50
2022-12-25T23:59:52.198Z,9.35
